createdAt,value
2019-03-09T00:00:39.396Z,46.69
2019-03-09T00:05:36.347Z,46.99
2019-03-09T00:10:35.404Z,46.63
2019-03-09T00:15:32.353Z,47.33
2019-03-09T00:20:29.432Z,46.73
2019-03-09T00:25:28.238Z,47.27
2019-03-09T00:30:30.104Z,47.62
2019-03-09T00:35:27.130Z,47.52
2019-03-09T00:40:24.154Z,47.12
2019-03-09T00:45:22.801Z,48.11
2019-03-09T00:50:19.903Z,47.91
2019-03-09T00:55:17.140Z,48.05
2019-03-09T01:00:17.617Z,48.30
2019-03-09T01:05:14.779Z,48.80
2019-03-09T01:10:14.331Z,48.26
2019-03-09T01:15:12.189Z,49.24
2019-03-09T01:20:14.682Z,48.86
2019-03-09T01:25:11.898Z,48.63
2019-03-09T01:30:17.225Z,47.99
2019-03-09T01:35:14.274Z,47.81
2019-03-09T01:40:14.153Z,48.54
2019-03-09T01:45:14.242Z,48.21
2019-03-09T01:50:11.225Z,47.98
2019-03-09T01:55:10.658Z,47.08
2019-03-09T02:00:16.445Z,47.13
2019-03-09T02:05:14.548Z,47.27
2019-03-09T02:10:14.526Z,47.14
2019-03-09T02:15:14.238Z,47.38
2019-03-09T02:20:15.756Z,48.29
2019-03-09T02:25:13.202Z,47.69
2019-03-09T02:30:16.024Z,47.95
2019-03-09T02:35:14.242Z,47.53
2019-03-09T02:40:13.871Z,47.14
2019-03-09T02:45:20.028Z,46.78
2019-03-09T02:50:17.070Z,48.17
2019-03-09T02:55:14.329Z,49.02
2019-03-09T03:00:17.333Z,49.16
2019-03-09T03:05:14.930Z,50.35
2019-03-09T03:10:11.965Z,49.46
2019-03-09T03:15:12.747Z,50.42
2019-03-09T03:20:09.868Z,50.31
2019-03-09T03:25:07.014Z,50.72
2019-03-09T03:30:06.569Z,50.68
2019-03-09T03:35:07.179Z,51.02
2019-03-09T03:40:11.378Z,50.61
2019-03-09T03:45:11.090Z,51.65
2019-03-09T03:50:08.167Z,52.53
2019-03-09T03:55:08.348Z,51.35
2019-03-09T04:00:11.768Z,51.50
2019-03-09T04:05:09.622Z,51.38
2019-03-09T04:10:10.504Z,51.74
2019-03-09T04:15:07.853Z,51.87
2019-03-09T04:20:07.229Z,51.89
2019-03-09T04:25:06.279Z,51.57
2019-03-09T04:30:06.568Z,51.12
2019-03-09T04:35:04.792Z,51.72
2019-03-09T04:40:02.675Z,51.89
2019-03-09T04:44:59.827Z,52.25
2019-03-09T04:49:56.853Z,53.13
2019-03-09T04:54:53.847Z,55.62
2019-03-09T04:59:50.836Z,55.76
2019-03-09T05:04:47.782Z,55.77
2019-03-09T05:10:02.312Z,54.95
2019-03-09T05:14:59.344Z,54.01
2019-03-09T05:19:56.403Z,54.77
2019-03-09T05:24:53.357Z,55.93
2019-03-09T05:29:50.492Z,55.79
2019-03-09T05:34:47.507Z,54.92
2019-03-09T05:39:45.707Z,55.15
2019-03-09T05:44:42.748Z,55.50
2019-03-09T05:49:39.828Z,55.55
2019-03-09T05:54:36.784Z,55.75
2019-03-09T05:59:33.805Z,55.01
2019-03-09T06:04:30.810Z,54.28
2019-03-09T06:09:27.901Z,54.41
2019-03-09T06:14:24.930Z,53.24
2019-03-09T06:19:22.050Z,53.66
2019-03-09T06:24:18.984Z,53.37
2019-03-09T06:29:16.006Z,52.71
2019-03-09T06:34:13.165Z,52.17
2019-03-09T06:39:10.212Z,51.87
2019-03-09T06:44:07.241Z,51.24
2019-03-09T06:49:04.229Z,50.20
2019-03-09T06:54:01.440Z,50.19
2019-03-09T06:58:58.579Z,48.61
2019-03-09T07:03:55.833Z,48.73
2019-03-09T07:08:52.920Z,46.43
2019-03-09T07:13:53.138Z,46.41
2019-03-09T07:18:48.844Z,46.11
2019-03-09T07:23:45.901Z,46.02
2019-03-09T07:28:42.997Z,44.75
2019-03-09T07:33:41.405Z,43.16
2019-03-09T07:38:38.443Z,46.61
2019-03-09T07:43:35.423Z,44.17
2019-03-09T07:48:32.418Z,40.95
2019-03-09T07:53:29.466Z,39.47
2019-03-09T07:58:26.552Z,39.53
2019-03-09T08:03:23.528Z,39.08
2019-03-09T08:08:20.685Z,38.19
2019-03-09T08:13:17.639Z,37.74
2019-03-09T08:18:14.803Z,38.02
2019-03-09T08:23:11.847Z,36.84
2019-03-09T08:28:08.928Z,35.55
2019-03-09T08:33:05.935Z,33.91
2019-03-09T08:38:02.958Z,33.61
2019-03-09T08:42:59.971Z,33.39
2019-03-09T08:47:59.036Z,34.18
2019-03-09T08:52:56.058Z,34.18
2019-03-09T08:57:53.131Z,34.03
2019-03-09T09:02:50.135Z,33.79
2019-03-09T09:07:47.245Z,31.78
2019-03-09T09:12:45.536Z,30.72
2019-03-09T09:17:42.916Z,30.81
2019-03-09T09:22:39.939Z,30.13
2019-03-09T09:27:37.070Z,30.69
2019-03-09T09:32:34.974Z,27.97
2019-03-09T09:37:31.997Z,30.00
2019-03-09T09:42:28.984Z,28.82
2019-03-09T09:47:26.031Z,28.21
2019-03-09T09:52:22.983Z,29.45
2019-03-09T09:57:20.094Z,27.64
2019-03-09T10:02:17.615Z,28.39
2019-03-09T10:07:14.812Z,28.93
2019-03-09T10:12:11.739Z,28.17
2019-03-09T10:17:08.770Z,27.98
2019-03-09T10:22:05.893Z,28.38
2019-03-09T10:27:02.917Z,29.19
2019-03-09T10:31:59.861Z,28.55
2019-03-09T10:36:56.973Z,26.53
2019-03-09T10:41:54.974Z,26.04
2019-03-09T10:46:52.014Z,26.96
2019-03-09T10:51:49.061Z,26.31
2019-03-09T10:56:46.162Z,26.21
2019-03-09T11:01:43.172Z,27.52
2019-03-09T11:06:40.641Z,27.04
2019-03-09T11:11:37.604Z,25.85
2019-03-09T11:16:34.636Z,26.14
2019-03-09T11:21:31.735Z,24.56
2019-03-09T11:26:30.769Z,25.20
2019-03-09T11:31:27.699Z,26.12
2019-03-09T11:36:24.717Z,26.71
2019-03-09T11:41:21.772Z,24.51
2019-03-09T11:46:18.807Z,24.24
2019-03-09T11:51:15.833Z,25.47
2019-03-09T11:56:12.955Z,24.42
2019-03-09T12:01:09.958Z,25.32
2019-03-09T12:06:07.552Z,27.67
2019-03-09T12:11:04.647Z,26.38
2019-03-09T12:16:01.713Z,25.88
2019-03-09T12:20:58.719Z,27.19
2019-03-09T12:25:55.950Z,26.96
2019-03-09T12:30:52.946Z,27.54
2019-03-09T12:35:50.056Z,28.00
2019-03-09T12:40:47.099Z,28.40
2019-03-09T12:45:44.198Z,27.76
2019-03-09T12:50:41.262Z,28.28
2019-03-09T12:55:38.337Z,28.27
2019-03-09T13:00:35.402Z,27.57
2019-03-09T13:05:32.463Z,28.55
2019-03-09T13:10:29.424Z,28.79
2019-03-09T13:15:26.413Z,28.60
2019-03-09T13:20:23.369Z,28.32
2019-03-09T13:25:20.354Z,27.61
2019-03-09T13:30:20.856Z,27.47
2019-03-09T13:35:17.931Z,27.66
2019-03-09T13:40:15.722Z,27.90
2019-03-09T13:45:17.345Z,27.66
2019-03-09T13:50:14.675Z,27.50
2019-03-09T13:55:12.670Z,27.35
2019-03-09T14:00:17.949Z,27.85
2019-03-09T14:05:15.155Z,28.23
2019-03-09T14:10:15.044Z,28.04
2019-03-09T14:15:17.227Z,28.38
2019-03-09T14:20:15.160Z,28.60
2019-03-09T14:25:15.499Z,28.83
2019-03-09T14:30:18.346Z,29.53
2019-03-09T14:35:15.691Z,28.89
2019-03-09T14:40:16.265Z,30.32
2019-03-09T14:45:19.473Z,29.72
2019-03-09T14:50:17.166Z,30.55
2019-03-09T14:55:14.484Z,30.78
2019-03-09T15:00:24.015Z,31.44
2019-03-09T15:05:21.018Z,32.43
2019-03-09T15:10:18.482Z,33.25
2019-03-09T15:15:19.836Z,34.37
2019-03-09T15:20:17.146Z,34.97
2019-03-09T15:25:17.092Z,35.56
2019-03-09T15:30:16.271Z,35.21
2019-03-09T15:35:15.240Z,35.25
2019-03-09T15:40:17.119Z,35.65
2019-03-09T15:45:17.260Z,35.53
2019-03-09T15:50:22.136Z,35.52
2019-03-09T15:55:19.400Z,35.46
2019-03-09T16:00:25.857Z,35.73
2019-03-09T16:05:22.958Z,35.28
2019-03-09T16:10:22.034Z,35.68
2019-03-09T16:15:20.166Z,35.88
2019-03-09T16:20:24.308Z,36.29
2019-03-09T16:25:21.512Z,36.55
2019-03-09T16:30:22.994Z,36.71
2019-03-09T16:35:20.025Z,36.72
2019-03-09T16:40:24.332Z,36.81
2019-03-09T16:45:21.527Z,36.56
2019-03-09T16:50:20.763Z,36.74
2019-03-09T16:55:17.868Z,36.98
2019-03-09T17:00:22.931Z,37.08
2019-03-09T17:05:19.946Z,37.31
2019-03-09T17:10:19.163Z,37.96
2019-03-09T17:15:23.072Z,38.56
2019-03-09T17:20:20.372Z,38.28
2019-03-09T17:25:17.476Z,38.39
2019-03-09T17:30:20.614Z,38.86
2019-03-09T17:35:20.842Z,39.11
2019-03-09T17:40:18.217Z,38.79
2019-03-09T17:45:21.962Z,38.73
2019-03-09T17:50:19.077Z,38.91
2019-03-09T17:55:16.821Z,39.64
2019-03-09T18:00:28.358Z,39.31
2019-03-09T18:05:26.386Z,39.55
2019-03-09T18:10:28.842Z,39.30
2019-03-09T18:15:26.006Z,39.16
2019-03-09T18:20:23.279Z,39.74
2019-03-09T18:25:20.446Z,39.57
2019-03-09T18:30:17.870Z,39.45
2019-03-09T18:35:15.185Z,39.82
2019-03-09T18:40:16.217Z,40.13
2019-03-09T18:45:18.551Z,40.17
2019-03-09T18:50:15.811Z,40.07
2019-03-09T18:55:13.129Z,40.72
2019-03-09T19:00:17.778Z,40.83
2019-03-09T19:05:15.551Z,41.18
2019-03-09T19:10:16.376Z,40.98
2019-03-09T19:15:18.032Z,42.30
2019-03-09T19:20:20.209Z,41.37
2019-03-09T19:25:17.679Z,41.11
2019-03-09T19:30:19.988Z,41.29
2019-03-09T19:35:17.515Z,41.87
2019-03-09T19:40:18.965Z,42.60
2019-03-09T19:45:18.975Z,42.31
2019-03-09T19:50:28.501Z,42.43
2019-03-09T19:55:25.696Z,42.74
2019-03-09T20:00:23.076Z,43.08
2019-03-09T20:05:20.348Z,42.89
2019-03-09T20:10:19.696Z,43.03
2019-03-09T20:15:19.493Z,43.63
2019-03-09T20:20:17.445Z,43.62
2019-03-09T20:25:14.590Z,44.38
2019-03-09T20:30:21.519Z,44.33
2019-03-09T20:35:18.806Z,44.79
2019-03-09T20:40:17.094Z,44.33
2019-03-09T20:45:20.922Z,44.43
2019-03-09T20:50:22.330Z,45.23
2019-03-09T20:55:19.360Z,45.48
2019-03-09T21:00:21.907Z,45.30
2019-03-09T21:05:19.170Z,45.55
2019-03-09T21:10:17.703Z,45.68
2019-03-09T21:15:14.777Z,44.56
2019-03-09T21:20:12.357Z,44.12
2019-03-09T21:25:09.433Z,44.38
2019-03-09T21:30:08.301Z,44.62
2019-03-09T21:35:06.363Z,44.49
2019-03-09T21:40:05.677Z,44.12
2019-03-09T21:45:03.240Z,43.79
2019-03-09T21:50:00.375Z,43.54
2019-03-09T21:54:57.387Z,43.92
2019-03-09T21:59:54.710Z,44.35
2019-03-09T22:04:51.881Z,43.65
2019-03-09T22:09:49.006Z,43.36
2019-03-09T22:14:45.939Z,43.57
2019-03-09T22:19:43.040Z,43.14
2019-03-09T22:24:40.003Z,43.04
2019-03-09T22:29:37.124Z,44.15
2019-03-09T22:34:34.098Z,43.90
2019-03-09T22:39:31.245Z,44.58
2019-03-09T22:44:28.326Z,45.15
2019-03-09T22:49:25.430Z,45.54
2019-03-09T22:54:22.945Z,45.26
2019-03-09T22:59:23.195Z,46.93
2019-03-09T23:04:20.452Z,46.42
2019-03-09T23:09:17.460Z,47.50
2019-03-09T23:14:15.693Z,47.53
2019-03-09T23:19:13.291Z,47.83
2019-03-09T23:24:10.455Z,48.91
2019-03-09T23:29:07.531Z,49.89
2019-03-09T23:34:04.499Z,49.64
2019-03-09T23:39:01.633Z,49.95
2019-03-09T23:43:58.679Z,50.53
2019-03-09T23:48:56.100Z,50.82
2019-03-09T23:53:53.175Z,51.07
2019-03-09T23:58:50.240Z,50.16
